Hovedside
METAR-TAF:

METAR-TAF

Lufthavner :

Pointe-à-Pitre, Guadeloupe

breddegrad: 16-16N, lengdegrad: 061-31W, høyde over havet: 11 m

Gjeldene værobservasjon

Denne rapporten ble laget for 18 minutter siden, klokken 08:00 UTC
Vind 1 kt fra Nord-nordvest
Temperatur 23°C
Luftfuktighet 94%
Trykk 1011 hPa
Sikt 10 km eller mer

METAR: TFFR 190800Z AUTO 33001KT 9999 ///TCU 23/22 Q1011 BECMG SCT030

Tid: 04:18 (08:18 UTC)

Varsel

Denne rapporten ble laget for 3 timer og 18 minutter siden, klokken 05:00 UTC
Varsel gyldig fra 19. klokken 06 UTC til 20. klokken 06 UTC
Vind 3 kt fra skiftende retning
Sikt 10 km eller mer
Spredte skyer i en høyde av 3000 ft
Sannsynlighet 30% :
Midlertidig
fra 19. klokken 18 UTC til 19. klokken 24 UTC
Sikt: 3000 m
Spredte skyer i en høyde av 1800 ft, Tårnskyer (cumulus).
regnbyger

TAF: TFFR 190500Z 1906/2006 VRB03KT 9999 SCT030 PROB30 TEMPO 1918/1924 3000 SHRA SCT018TCU

Værobservasjoner og værvarsel for over 4000 flyplasser (METAR- og TAF-rapporter).

Tilgjengelige stasjoner er representert av de røde og gule prikkene på kartet.

Hold musepekeren over prikken for å se navnet på stasjonen.

Klikk så for å se værobservasjoner og -varsler.

For å forandre kartet kan du klikke på den grønne knappen med svart kryss for å zoome inn, på den grønne knappen med strek for å zoome ut, eller på de grønne pilene for å se tilstøtende kart.


METAR-TAF: